sensor_id;sensor_type;location;lat;lon;timestamp;temperature;humidity
78779;DHT22;68121;52.404;5.318;2023-07-30T00:00:22;18.00;68.10
78779;DHT22;68121;52.404;5.318;2023-07-30T00:02:50;18.00;68.10
78779;DHT22;68121;52.404;5.318;2023-07-30T00:05:16;18.00;68.20
78779;DHT22;68121;52.404;5.318;2023-07-30T00:07:42;18.00;68.20
78779;DHT22;68121;52.404;5.318;2023-07-30T00:10:08;18.00;68.30
78779;DHT22;68121;52.404;5.318;2023-07-30T00:12:34;18.00;68.40
78779;DHT22;68121;52.404;5.318;2023-07-30T00:15:00;17.90;68.40
78779;DHT22;68121;52.404;5.318;2023-07-30T00:17:26;17.90;68.40
78779;DHT22;68121;52.404;5.318;2023-07-30T00:19:52;17.90;68.50
78779;DHT22;68121;52.404;5.318;2023-07-30T00:22:18;17.90;68.60
78779;DHT22;68121;52.404;5.318;2023-07-30T00:24:44;17.90;68.60
78779;DHT22;68121;52.404;5.318;2023-07-30T00:27:10;17.80;68.60
78779;DHT22;68121;52.404;5.318;2023-07-30T00:29:36;17.80;68.70
78779;DHT22;68121;52.404;5.318;2023-07-30T00:32:02;17.80;68.70
78779;DHT22;68121;52.404;5.318;2023-07-30T00:34:29;17.80;68.80
78779;DHT22;68121;52.404;5.318;2023-07-30T00:36:55;17.80;68.90
78779;DHT22;68121;52.404;5.318;2023-07-30T00:39:21;17.80;68.90
78779;DHT22;68121;52.404;5.318;2023-07-30T00:41:47;17.80;69.00
78779;DHT22;68121;52.404;5.318;2023-07-30T00:44:13;17.80;69.00
78779;DHT22;68121;52.404;5.318;2023-07-30T00:46:39;17.80;69.10
78779;DHT22;68121;52.404;5.318;2023-07-30T00:49:05;17.70;69.20
78779;DHT22;68121;52.404;5.318;2023-07-30T00:51:33;17.70;69.20
78779;DHT22;68121;52.404;5.318;2023-07-30T00:54:00;17.70;69.30
78779;DHT22;68121;52.404;5.318;2023-07-30T00:56:26;17.70;69.30
78779;DHT22;68121;52.404;5.318;2023-07-30T00:58:53;17.70;69.30
78779;DHT22;68121;52.404;5.318;2023-07-30T01:01:20;17.70;69.40
78779;DHT22;68121;52.404;5.318;2023-07-30T01:03:46;17.60;69.50
78779;DHT22;68121;52.404;5.318;2023-07-30T01:06:12;17.70;69.50
78779;DHT22;68121;52.404;5.318;2023-07-30T01:08:38;17.70;69.60
78779;DHT22;68121;52.404;5.318;2023-07-30T01:11:05;17.60;69.60
78779;DHT22;68121;52.404;5.318;2023-07-30T01:13:33;17.60;69.70
78779;DHT22;68121;52.404;5.318;2023-07-30T01:16:01;17.60;69.70
78779;DHT22;68121;52.404;5.318;2023-07-30T01:18:29;17.60;69.80
78779;DHT22;68121;52.404;5.318;2023-07-30T01:20:59;17.60;69.90
78779;DHT22;68121;52.404;5.318;2023-07-30T01:23:25;17.60;70.00
78779;DHT22;68121;52.404;5.318;2023-07-30T01:26:02;17.50;70.00
78779;DHT22;68121;52.404;5.318;2023-07-30T01:28:33;17.50;70.20
78779;DHT22;68121;52.404;5.318;2023-07-30T01:31:02;17.50;70.10
78779;DHT22;68121;52.404;5.318;2023-07-30T01:33:30;17.50;70.20
78779;DHT22;68121;52.404;5.318;2023-07-30T01:35:57;17.50;70.20
78779;DHT22;68121;52.404;5.318;2023-07-30T01:38:25;17.50;70.30
78779;DHT22;68121;52.404;5.318;2023-07-30T01:40:52;17.50;70.40
78779;DHT22;68121;52.404;5.318;2023-07-30T01:43:18;17.50;70.40
78779;DHT22;68121;52.404;5.318;2023-07-30T01:45:44;17.50;70.40
78779;DHT22;68121;52.404;5.318;2023-07-30T01:48:10;17.50;70.50
78779;DHT22;68121;52.404;5.318;2023-07-30T01:50:36;17.50;70.50
78779;DHT22;68121;52.404;5.318;2023-07-30T01:53:02;17.50;70.50
78779;DHT22;68121;52.404;5.318;2023-07-30T01:55:28;17.50;70.50
78779;DHT22;68121;52.404;5.318;2023-07-30T01:57:54;17.50;70.60
78779;DHT22;68121;52.404;5.318;2023-07-30T02:00:20;17.50;70.60
78779;DHT22;68121;52.404;5.318;2023-07-30T02:02:46;17.50;70.60
78779;DHT22;68121;52.404;5.318;2023-07-30T02:05:13;17.50;70.70
78779;DHT22;68121;52.404;5.318;2023-07-30T02:07:39;17.50;70.70
78779;DHT22;68121;52.404;5.318;2023-07-30T02:10:05;17.50;70.70
78779;DHT22;68121;52.404;5.318;2023-07-30T02:12:31;17.40;70.70
78779;DHT22;68121;52.404;5.318;2023-07-30T02:14:57;17.50;70.80
78779;DHT22;68121;52.404;5.318;2023-07-30T02:17:23;17.40;70.70
78779;DHT22;68121;52.404;5.318;2023-07-30T02:19:49;17.40;70.70
78779;DHT22;68121;52.404;5.318;2023-07-30T02:22:15;17.40;70.80
78779;DHT22;68121;52.404;5.318;2023-07-30T02:24:41;17.40;70.90
78779;DHT22;68121;52.404;5.318;2023-07-30T02:27:07;17.40;70.90
78779;DHT22;68121;52.404;5.318;2023-07-30T02:29:33;17.40;71.00
78779;DHT22;68121;52.404;5.318;2023-07-30T02:31:59;17.40;71.00
78779;DHT22;68121;52.404;5.318;2023-07-30T02:34:25;17.40;71.00
78779;DHT22;68121;52.404;5.318;2023-07-30T02:36:51;17.40;71.00
78779;DHT22;68121;52.404;5.318;2023-07-30T02:39:18;17.40;71.10
78779;DHT22;68121;52.404;5.318;2023-07-30T02:41:44;17.40;71.10
78779;DHT22;68121;52.404;5.318;2023-07-30T02:44:10;17.30;71.20
78779;DHT22;68121;52.404;5.318;2023-07-30T02:46:36;17.40;71.20
78779;DHT22;68121;52.404;5.318;2023-07-30T02:49:02;17.40;71.40
78779;DHT22;68121;52.404;5.318;2023-07-30T02:51:28;17.40;71.40
78779;DHT22;68121;52.404;5.318;2023-07-30T02:53:58;17.40;71.50
78779;DHT22;68121;52.404;5.318;2023-07-30T02:56:26;17.40;71.50
78779;DHT22;68121;52.404;5.318;2023-07-30T02:58:52;17.40;71.60
78779;DHT22;68121;52.404;5.318;2023-07-30T03:01:18;17.40;71.60
78779;DHT22;68121;52.404;5.318;2023-07-30T03:03:44;17.40;71.70
78779;DHT22;68121;52.404;5.318;2023-07-30T03:06:10;17.40;71.70
78779;DHT22;68121;52.404;5.318;2023-07-30T03:08:36;17.40;71.80
78779;DHT22;68121;52.404;5.318;2023-07-30T03:11:04;17.40;71.80
78779;DHT22;68121;52.404;5.318;2023-07-30T03:13:30;17.40;71.90
78779;DHT22;68121;52.404;5.318;2023-07-30T03:15:56;17.40;71.90
78779;DHT22;68121;52.404;5.318;2023-07-30T03:18:22;17.40;72.00
78779;DHT22;68121;52.404;5.318;2023-07-30T03:20:49;17.40;72.10
78779;DHT22;68121;52.404;5.318;2023-07-30T03:23:15;17.40;72.10
78779;DHT22;68121;52.404;5.318;2023-07-30T03:25:41;17.50;72.20
78779;DHT22;68121;52.404;5.318;2023-07-30T03:28:07;17.50;72.20
78779;DHT22;68121;52.404;5.318;2023-07-30T03:30:33;17.50;72.20
78779;DHT22;68121;52.404;5.318;2023-07-30T03:32:59;17.50;72.30
78779;DHT22;68121;52.404;5.318;2023-07-30T03:35:25;17.50;72.40
78779;DHT22;68121;52.404;5.318;2023-07-30T03:37:51;17.50;72.40
78779;DHT22;68121;52.404;5.318;2023-07-30T03:40:17;17.50;72.50
78779;DHT22;68121;52.404;5.318;2023-07-30T03:42:43;17.40;72.50
78779;DHT22;68121;52.404;5.318;2023-07-30T03:45:10;17.40;72.50
78779;DHT22;68121;52.404;5.318;2023-07-30T03:47:36;17.40;72.50
78779;DHT22;68121;52.404;5.318;2023-07-30T03:50:02;17.40;72.60
78779;DHT22;68121;52.404;5.318;2023-07-30T03:52:28;17.40;72.60
78779;DHT22;68121;52.404;5.318;2023-07-30T03:54:54;17.40;72.60
78779;DHT22;68121;52.404;5.318;2023-07-30T03:57:20;17.40;72.60
78779;DHT22;68121;52.404;5.318;2023-07-30T03:59:46;17.40;72.70
78779;DHT22;68121;52.404;5.318;2023-07-30T04:02:12;17.30;72.80
78779;DHT22;68121;52.404;5.318;2023-07-30T04:04:42;17.30;72.80
78779;DHT22;68121;52.404;5.318;2023-07-30T04:07:10;17.30;72.80
78779;DHT22;68121;52.404;5.318;2023-07-30T04:09:36;17.20;72.80
78779;DHT22;68121;52.404;5.318;2023-07-30T04:12:02;17.20;72.80
78779;DHT22;68121;52.404;5.318;2023-07-30T04:14:29;17.20;72.80
78779;DHT22;68121;52.404;5.318;2023-07-30T04:16:55;17.20;72.80
78779;DHT22;68121;52.404;5.318;2023-07-30T04:19:21;17.20;72.80
78779;DHT22;68121;52.404;5.318;2023-07-30T04:21:47;17.20;72.90
78779;DHT22;68121;52.404;5.318;2023-07-30T04:24:13;17.20;72.90
78779;DHT22;68121;52.404;5.318;2023-07-30T04:26:39;17.20;72.90
78779;DHT22;68121;52.404;5.318;2023-07-30T04:29:05;17.20;72.90
78779;DHT22;68121;52.404;5.318;2023-07-30T04:31:31;17.20;72.90
78779;DHT22;68121;52.404;5.318;2023-07-30T04:33:58;17.20;73.00
78779;DHT22;68121;52.404;5.318;2023-07-30T04:36:24;17.20;72.90
78779;DHT22;68121;52.404;5.318;2023-07-30T04:38:50;17.20;73.00
78779;DHT22;68121;52.404;5.318;2023-07-30T04:41:16;17.10;73.00
78779;DHT22;68121;52.404;5.318;2023-07-30T04:43:44;17.10;73.00
78779;DHT22;68121;52.404;5.318;2023-07-30T04:46:10;17.10;73.00
78779;DHT22;68121;52.404;5.318;2023-07-30T04:48:37;17.10;73.10
78779;DHT22;68121;52.404;5.318;2023-07-30T04:51:03;17.10;73.10
78779;DHT22;68121;52.404;5.318;2023-07-30T04:53:29;17.10;73.10
78779;DHT22;68121;52.404;5.318;2023-07-30T04:55:56;17.10;73.10
78779;DHT22;68121;52.404;5.318;2023-07-30T04:58:23;17.10;73.20
78779;DHT22;68121;52.404;5.318;2023-07-30T05:00:49;17.10;73.20
78779;DHT22;68121;52.404;5.318;2023-07-30T05:03:15;17.10;73.20
78779;DHT22;68121;52.404;5.318;2023-07-30T05:05:42;17.10;73.20
78779;DHT22;68121;52.404;5.318;2023-07-30T05:08:08;17.20;73.20
78779;DHT22;68121;52.404;5.318;2023-07-30T05:10:34;17.20;73.20
78779;DHT22;68121;52.404;5.318;2023-07-30T05:13:00;17.20;73.20
78779;DHT22;68121;52.404;5.318;2023-07-30T05:15:28;17.20;73.10
78779;DHT22;68121;52.404;5.318;2023-07-30T05:17:54;17.10;73.20
78779;DHT22;68121;52.404;5.318;2023-07-30T05:20:20;17.10;73.20
78779;DHT22;68121;52.404;5.318;2023-07-30T05:22:46;17.10;73.20
78779;DHT22;68121;52.404;5.318;2023-07-30T05:25:12;17.20;73.20
78779;DHT22;68121;52.404;5.318;2023-07-30T05:27:38;17.20;73.30
78779;DHT22;68121;52.404;5.318;2023-07-30T05:30:05;17.20;73.20
78779;DHT22;68121;52.404;5.318;2023-07-30T05:32:31;17.20;73.20
78779;DHT22;68121;52.404;5.318;2023-07-30T05:34:58;17.20;73.20
78779;DHT22;68121;52.404;5.318;2023-07-30T05:37:24;17.20;73.20
78779;DHT22;68121;52.404;5.318;2023-07-30T05:39:50;17.20;73.30
78779;DHT22;68121;52.404;5.318;2023-07-30T05:42:16;17.20;73.20
78779;DHT22;68121;52.404;5.318;2023-07-30T05:44:42;17.20;73.20
78779;DHT22;68121;52.404;5.318;2023-07-30T05:47:08;17.20;73.20
78779;DHT22;68121;52.404;5.318;2023-07-30T05:49:34;17.20;73.20
78779;DHT22;68121;52.404;5.318;2023-07-30T05:52:00;17.30;73.20
78779;DHT22;68121;52.404;5.318;2023-07-30T05:54:26;17.30;73.10
78779;DHT22;68121;52.404;5.318;2023-07-30T05:56:52;17.30;73.10
78779;DHT22;68121;52.404;5.318;2023-07-30T05:59:19;17.40;73.10
78779;DHT22;68121;52.404;5.318;2023-07-30T06:01:45;17.40;73.10
78779;DHT22;68121;52.404;5.318;2023-07-30T06:04:11;17.40;73.10
78779;DHT22;68121;52.404;5.318;2023-07-30T06:06:38;17.40;73.00
78779;DHT22;68121;52.404;5.318;2023-07-30T06:09:04;17.40;73.00
78779;DHT22;68121;52.404;5.318;2023-07-30T06:11:30;17.40;73.00
78779;DHT22;68121;52.404;5.318;2023-07-30T06:13:56;17.40;72.90
78779;DHT22;68121;52.404;5.318;2023-07-30T06:16:22;17.50;73.00
78779;DHT22;68121;52.404;5.318;2023-07-30T06:18:48;17.40;72.90
78779;DHT22;68121;52.404;5.318;2023-07-30T06:21:14;17.50;72.90
78779;DHT22;68121;52.404;5.318;2023-07-30T06:23:40;17.50;72.80
78779;DHT22;68121;52.404;5.318;2023-07-30T06:26:06;17.50;72.80
78779;DHT22;68121;52.404;5.318;2023-07-30T06:28:32;17.50;72.70
78779;DHT22;68121;52.404;5.318;2023-07-30T06:31:02;17.50;72.60
78779;DHT22;68121;52.404;5.318;2023-07-30T06:33:29;17.50;72.60
78779;DHT22;68121;52.404;5.318;2023-07-30T06:35:55;17.50;72.60
78779;DHT22;68121;52.404;5.318;2023-07-30T06:38:22;17.50;72.60
78779;DHT22;68121;52.404;5.318;2023-07-30T06:40:49;17.50;72.60
78779;DHT22;68121;52.404;5.318;2023-07-30T06:43:15;17.50;72.60
78779;DHT22;68121;52.404;5.318;2023-07-30T06:45:41;17.50;72.60
78779;DHT22;68121;52.404;5.318;2023-07-30T06:48:07;17.50;72.60
78779;DHT22;68121;52.404;5.318;2023-07-30T06:50:33;17.50;72.70
78779;DHT22;68121;52.404;5.318;2023-07-30T06:52:59;17.50;72.70
78779;DHT22;68121;52.404;5.318;2023-07-30T06:55:25;17.50;72.70
78779;DHT22;68121;52.404;5.318;2023-07-30T06:57:51;17.50;72.60
78779;DHT22;68121;52.404;5.318;2023-07-30T07:00:17;17.50;72.60
78779;DHT22;68121;52.404;5.318;2023-07-30T07:02:48;17.50;72.60
78779;DHT22;68121;52.404;5.318;2023-07-30T07:05:14;17.60;72.60
78779;DHT22;68121;52.404;5.318;2023-07-30T07:07:40;17.60;72.50
78779;DHT22;68121;52.404;5.318;2023-07-30T07:10:07;17.70;72.50
78779;DHT22;68121;52.404;5.318;2023-07-30T07:12:33;17.70;72.50
78779;DHT22;68121;52.404;5.318;2023-07-30T07:14:59;17.80;72.50
78779;DHT22;68121;52.404;5.318;2023-07-30T07:17:28;17.80;72.50
78779;DHT22;68121;52.404;5.318;2023-07-30T07:19:54;17.80;72.50
78779;DHT22;68121;52.404;5.318;2023-07-30T07:22:20;17.80;72.40
78779;DHT22;68121;52.404;5.318;2023-07-30T07:24:46;17.80;72.40
78779;DHT22;68121;52.404;5.318;2023-07-30T07:27:12;17.80;72.40
78779;DHT22;68121;52.404;5.318;2023-07-30T07:29:38;17.80;72.30
78779;DHT22;68121;52.404;5.318;2023-07-30T07:32:05;17.80;72.50
78779;DHT22;68121;52.404;5.318;2023-07-30T07:34:31;17.80;72.50
78779;DHT22;68121;52.404;5.318;2023-07-30T07:36:57;17.80;72.50
78779;DHT22;68121;52.404;5.318;2023-07-30T07:39:23;17.80;72.50
78779;DHT22;68121;52.404;5.318;2023-07-30T07:41:49;17.80;72.40
78779;DHT22;68121;52.404;5.318;2023-07-30T07:44:15;17.80;72.40
78779;DHT22;68121;52.404;5.318;2023-07-30T07:46:41;17.80;72.60
78779;DHT22;68121;52.404;5.318;2023-07-30T07:49:07;17.70;72.70
78779;DHT22;68121;52.404;5.318;2023-07-30T07:51:34;17.70;72.80
78779;DHT22;68121;52.404;5.318;2023-07-30T07:54:00;17.60;72.90
78779;DHT22;68121;52.404;5.318;2023-07-30T07:56:26;17.60;73.00
78779;DHT22;68121;52.404;5.318;2023-07-30T07:58:52;17.60;73.00
78779;DHT22;68121;52.404;5.318;2023-07-30T08:01:18;17.70;73.00
78779;DHT22;68121;52.404;5.318;2023-07-30T08:03:44;17.70;73.00
78779;DHT22;68121;52.404;5.318;2023-07-30T08:06:10;17.80;73.00
78779;DHT22;68121;52.404;5.318;2023-07-30T08:08:36;17.80;73.00
78779;DHT22;68121;52.404;5.318;2023-07-30T08:11:06;17.80;72.80
78779;DHT22;68121;52.404;5.318;2023-07-30T08:13:33;17.80;72.80
78779;DHT22;68121;52.404;5.318;2023-07-30T08:16:00;17.80;72.80
78779;DHT22;68121;52.404;5.318;2023-07-30T08:18:26;17.80;72.80
78779;DHT22;68121;52.404;5.318;2023-07-30T08:20:52;17.80;72.90
78779;DHT22;68121;52.404;5.318;2023-07-30T08:23:18;17.80;72.90
78779;DHT22;68121;52.404;5.318;2023-07-30T08:25:44;17.70;72.90
78779;DHT22;68121;52.404;5.318;2023-07-30T08:28:10;17.60;72.80
78779;DHT22;68121;52.404;5.318;2023-07-30T08:30:36;17.60;72.90
78779;DHT22;68121;52.404;5.318;2023-07-30T08:33:02;17.60;73.00
78779;DHT22;68121;52.404;5.318;2023-07-30T08:35:29;17.60;73.10
78779;DHT22;68121;52.404;5.318;2023-07-30T08:37:55;17.70;73.10
78779;DHT22;68121;52.404;5.318;2023-07-30T08:40:22;17.80;73.00
78779;DHT22;68121;52.404;5.318;2023-07-30T08:42:51;18.10;72.80
78779;DHT22;68121;52.404;5.318;2023-07-30T08:45:17;18.30;72.60
78779;DHT22;68121;52.404;5.318;2023-07-30T08:47:45;18.50;72.30
78779;DHT22;68121;52.404;5.318;2023-07-30T08:50:12;18.80;71.70
78779;DHT22;68121;52.404;5.318;2023-07-30T08:52:39;18.90;71.10
78779;DHT22;68121;52.404;5.318;2023-07-30T08:55:06;18.90;70.70
78779;DHT22;68121;52.404;5.318;2023-07-30T08:57:32;18.90;70.50
78779;DHT22;68121;52.404;5.318;2023-07-30T09:00:04;18.70;70.20
78779;DHT22;68121;52.404;5.318;2023-07-30T09:02:39;18.70;70.20
78779;DHT22;68121;52.404;5.318;2023-07-30T09:05:07;18.60;70.10
78779;DHT22;68121;52.404;5.318;2023-07-30T09:07:33;18.50;70.10
78779;DHT22;68121;52.404;5.318;2023-07-30T09:09:59;18.60;70.00
78779;DHT22;68121;52.404;5.318;2023-07-30T09:12:33;18.80;69.60
78779;DHT22;68121;52.404;5.318;2023-07-30T09:15:00;18.80;69.30
78779;DHT22;68121;52.404;5.318;2023-07-30T09:17:27;18.80;69.10
78779;DHT22;68121;52.404;5.318;2023-07-30T09:19:53;18.80;69.00
78779;DHT22;68121;52.404;5.318;2023-07-30T09:22:30;18.90;69.00
78779;DHT22;68121;52.404;5.318;2023-07-30T09:24:56;18.90;69.00
78779;DHT22;68121;52.404;5.318;2023-07-30T09:27:25;18.80;68.90
78779;DHT22;68121;52.404;5.318;2023-07-30T09:29:55;18.80;68.90
78779;DHT22;68121;52.404;5.318;2023-07-30T09:32:26;18.70;68.90
78779;DHT22;68121;52.404;5.318;2023-07-30T09:34:52;18.70;68.90
78779;DHT22;68121;52.404;5.318;2023-07-30T09:37:18;18.80;68.90
78779;DHT22;68121;52.404;5.318;2023-07-30T09:39:47;18.80;68.90
78779;DHT22;68121;52.404;5.318;2023-07-30T09:42:14;19.00;68.80
78779;DHT22;68121;52.404;5.318;2023-07-30T09:44:40;19.20;68.60
78779;DHT22;68121;52.404;5.318;2023-07-30T09:47:12;19.30;68.40
78779;DHT22;68121;52.404;5.318;2023-07-30T09:49:38;19.40;68.20
78779;DHT22;68121;52.404;5.318;2023-07-30T09:52:05;19.30;68.10
78779;DHT22;68121;52.404;5.318;2023-07-30T09:54:32;19.30;68.00
78779;DHT22;68121;52.404;5.318;2023-07-30T09:56:58;19.20;68.00
78779;DHT22;68121;52.404;5.318;2023-07-30T09:59:25;19.20;67.90
78779;DHT22;68121;52.404;5.318;2023-07-30T10:01:52;19.30;67.90
78779;DHT22;68121;52.404;5.318;2023-07-30T10:04:22;19.60;67.60
78779;DHT22;68121;52.404;5.318;2023-07-30T10:06:51;19.90;67.20
78779;DHT22;68121;52.404;5.318;2023-07-30T10:09:20;20.10;66.80
78779;DHT22;68121;52.404;5.318;2023-07-30T10:11:51;20.50;66.20
78779;DHT22;68121;52.404;5.318;2023-07-30T10:14:22;20.70;65.70
78779;DHT22;68121;52.404;5.318;2023-07-30T10:16:56;20.90;65.30
78779;DHT22;68121;52.404;5.318;2023-07-30T10:19:26;21.10;64.80
78779;DHT22;68121;52.404;5.318;2023-07-30T10:25:02;21.50;63.80
78779;DHT22;68121;52.404;5.318;2023-07-30T10:27:40;21.70;63.60
78779;DHT22;68121;52.404;5.318;2023-07-30T10:30:11;21.90;63.30
78779;DHT22;68121;52.404;5.318;2023-07-30T10:32:38;22.10;62.90
78779;DHT22;68121;52.404;5.318;2023-07-30T10:35:04;22.10;62.50
78779;DHT22;68121;52.404;5.318;2023-07-30T10:37:30;22.10;62.70
78779;DHT22;68121;52.404;5.318;2023-07-30T10:39:56;22.10;62.20
78779;DHT22;68121;52.404;5.318;2023-07-30T10:42:22;22.00;61.90
78779;DHT22;68121;52.404;5.318;2023-07-30T10:44:49;22.20;61.50
78779;DHT22;68121;52.404;5.318;2023-07-30T10:47:15;22.10;61.00
78779;DHT22;68121;52.404;5.318;2023-07-30T10:49:41;22.00;60.90
78779;DHT22;68121;52.404;5.318;2023-07-30T10:52:09;22.00;61.10
78779;DHT22;68121;52.404;5.318;2023-07-30T10:54:36;21.90;61.10
78779;DHT22;68121;52.404;5.318;2023-07-30T10:57:03;21.90;61.00
78779;DHT22;68121;52.404;5.318;2023-07-30T10:59:38;21.70;60.90
78779;DHT22;68121;52.404;5.318;2023-07-30T11:02:05;21.50;60.90
78779;DHT22;68121;52.404;5.318;2023-07-30T11:04:34;21.50;61.10
78779;DHT22;68121;52.404;5.318;2023-07-30T11:07:00;21.50;60.90
78779;DHT22;68121;52.404;5.318;2023-07-30T11:09:27;21.50;60.90
78779;DHT22;68121;52.404;5.318;2023-07-30T11:11:55;21.50;60.80
78779;DHT22;68121;52.404;5.318;2023-07-30T11:14:23;21.50;60.70
78779;DHT22;68121;52.404;5.318;2023-07-30T11:16:53;21.50;60.70
78779;DHT22;68121;52.404;5.318;2023-07-30T11:19:21;21.60;60.50
78779;DHT22;68121;52.404;5.318;2023-07-30T11:21:48;21.60;60.30
78779;DHT22;68121;52.404;5.318;2023-07-30T11:24:15;21.70;60.20
78779;DHT22;68121;52.404;5.318;2023-07-30T11:26:42;21.90;60.10
78779;DHT22;68121;52.404;5.318;2023-07-30T11:29:18;22.00;59.90
78779;DHT22;68121;52.404;5.318;2023-07-30T11:31:45;22.10;59.60
78779;DHT22;68121;52.404;5.318;2023-07-30T11:34:15;22.20;59.60
78779;DHT22;68121;52.404;5.318;2023-07-30T11:36:42;22.20;59.60
78779;DHT22;68121;52.404;5.318;2023-07-30T11:39:08;22.30;59.70
78779;DHT22;68121;52.404;5.318;2023-07-30T11:41:35;22.30;59.60
78779;DHT22;68121;52.404;5.318;2023-07-30T11:44:02;22.20;59.60
78779;DHT22;68121;52.404;5.318;2023-07-30T11:46:28;22.30;59.50
78779;DHT22;68121;52.404;5.318;2023-07-30T11:49:13;22.50;59.30
78779;DHT22;68121;52.404;5.318;2023-07-30T11:51:39;22.60;58.90
78779;DHT22;68121;52.404;5.318;2023-07-30T11:54:05;22.50;59.00
78779;DHT22;68121;52.404;5.318;2023-07-30T11:56:32;22.50;59.00
78779;DHT22;68121;52.404;5.318;2023-07-30T11:59:06;22.50;58.90
78779;DHT22;68121;52.404;5.318;2023-07-30T12:01:33;22.40;58.70
78779;DHT22;68121;52.404;5.318;2023-07-30T12:04:04;22.30;58.60
78779;DHT22;68121;52.404;5.318;2023-07-30T12:06:50;22.20;58.70
78779;DHT22;68121;52.404;5.318;2023-07-30T12:09:21;22.30;58.40
78779;DHT22;68121;52.404;5.318;2023-07-30T12:11:59;22.40;58.60
78779;DHT22;68121;52.404;5.318;2023-07-30T12:14:43;22.50;58.20
78779;DHT22;68121;52.404;5.318;2023-07-30T12:17:10;22.50;58.00
78779;DHT22;68121;52.404;5.318;2023-07-30T12:19:36;22.50;58.20
78779;DHT22;68121;52.404;5.318;2023-07-30T12:22:03;22.30;58.20
78779;DHT22;68121;52.404;5.318;2023-07-30T12:24:29;22.30;58.20
78779;DHT22;68121;52.404;5.318;2023-07-30T12:26:55;22.40;58.30
78779;DHT22;68121;52.404;5.318;2023-07-30T12:29:21;22.50;58.00
78779;DHT22;68121;52.404;5.318;2023-07-30T12:31:47;22.70;57.90
78779;DHT22;68121;52.404;5.318;2023-07-30T12:34:14;22.90;57.80
78779;DHT22;68121;52.404;5.318;2023-07-30T12:36:40;22.90;57.50
78779;DHT22;68121;52.404;5.318;2023-07-30T12:39:06;22.90;57.40
78779;DHT22;68121;52.404;5.318;2023-07-30T12:41:33;23.00;57.30
78779;DHT22;68121;52.404;5.318;2023-07-30T12:43:59;23.20;57.10
78779;DHT22;68121;52.404;5.318;2023-07-30T12:46:26;23.20;56.80
78779;DHT22;68121;52.404;5.318;2023-07-30T12:48:56;23.10;56.60
78779;DHT22;68121;52.404;5.318;2023-07-30T12:51:22;23.00;56.60
78779;DHT22;68121;52.404;5.318;2023-07-30T12:53:48;22.90;56.40
78779;DHT22;68121;52.404;5.318;2023-07-30T12:56:15;22.70;56.20
78779;DHT22;68121;52.404;5.318;2023-07-30T12:58:41;22.80;56.20
78779;DHT22;68121;52.404;5.318;2023-07-30T13:01:09;22.90;56.00
78779;DHT22;68121;52.404;5.318;2023-07-30T13:03:35;23.00;55.80
78779;DHT22;68121;52.404;5.318;2023-07-30T13:06:02;23.00;55.70
78779;DHT22;68121;52.404;5.318;2023-07-30T13:08:28;23.00;55.60
78779;DHT22;68121;52.404;5.318;2023-07-30T13:10:54;23.00;55.60
78779;DHT22;68121;52.404;5.318;2023-07-30T13:13:20;23.10;55.50
78779;DHT22;68121;52.404;5.318;2023-07-30T13:15:46;23.20;55.40
78779;DHT22;68121;52.404;5.318;2023-07-30T13:18:12;23.10;55.20
78779;DHT22;68121;52.404;5.318;2023-07-30T13:20:38;22.90;55.30
78779;DHT22;68121;52.404;5.318;2023-07-30T13:23:05;23.00;55.50
78779;DHT22;68121;52.404;5.318;2023-07-30T13:25:31;23.10;55.40
78779;DHT22;68121;52.404;5.318;2023-07-30T13:27:57;23.00;55.40
78779;DHT22;68121;52.404;5.318;2023-07-30T13:30:23;23.10;55.30
78779;DHT22;68121;52.404;5.318;2023-07-30T13:32:49;23.10;55.10
78779;DHT22;68121;52.404;5.318;2023-07-30T13:35:18;23.10;55.00
78779;DHT22;68121;52.404;5.318;2023-07-30T13:37:44;23.20;54.70
78779;DHT22;68121;52.404;5.318;2023-07-30T13:40:10;23.30;54.50
78779;DHT22;68121;52.404;5.318;2023-07-30T13:42:36;23.30;54.20
78779;DHT22;68121;52.404;5.318;2023-07-30T13:45:03;23.30;54.10
78779;DHT22;68121;52.404;5.318;2023-07-30T13:47:29;23.30;54.10
78779;DHT22;68121;52.404;5.318;2023-07-30T13:49:55;23.30;54.00
78779;DHT22;68121;52.404;5.318;2023-07-30T13:52:21;23.30;53.90
78779;DHT22;68121;52.404;5.318;2023-07-30T13:54:47;23.30;53.90
78779;DHT22;68121;52.404;5.318;2023-07-30T13:57:22;23.20;53.80
78779;DHT22;68121;52.404;5.318;2023-07-30T13:59:48;23.20;53.70
78779;DHT22;68121;52.404;5.318;2023-07-30T14:02:14;23.10;53.90
78779;DHT22;68121;52.404;5.318;2023-07-30T14:04:40;23.00;54.00
78779;DHT22;68121;52.404;5.318;2023-07-30T14:07:06;23.00;54.00
78779;DHT22;68121;52.404;5.318;2023-07-30T14:09:33;23.00;53.80
78779;DHT22;68121;52.404;5.318;2023-07-30T14:12:01;23.00;53.70
78779;DHT22;68121;52.404;5.318;2023-07-30T14:14:27;23.00;53.60
78779;DHT22;68121;52.404;5.318;2023-07-30T14:16:54;23.00;53.60
78779;DHT22;68121;52.404;5.318;2023-07-30T14:19:20;23.00;53.70
78779;DHT22;68121;52.404;5.318;2023-07-30T14:21:46;23.00;53.80
78779;DHT22;68121;52.404;5.318;2023-07-30T14:24:12;23.00;54.00
78779;DHT22;68121;52.404;5.318;2023-07-30T14:26:39;22.90;54.00
78779;DHT22;68121;52.404;5.318;2023-07-30T14:29:05;22.80;54.10
78779;DHT22;68121;52.404;5.318;2023-07-30T14:31:33;22.70;54.30
78779;DHT22;68121;52.404;5.318;2023-07-30T14:33:59;22.70;54.50
78779;DHT22;68121;52.404;5.318;2023-07-30T14:36:25;22.60;54.70
78779;DHT22;68121;52.404;5.318;2023-07-30T14:38:52;22.60;54.70
78779;DHT22;68121;52.404;5.318;2023-07-30T14:41:18;22.50;54.60
78779;DHT22;68121;52.404;5.318;2023-07-30T14:43:44;22.30;54.80
78779;DHT22;68121;52.404;5.318;2023-07-30T14:46:10;22.30;54.90
78779;DHT22;68121;52.404;5.318;2023-07-30T14:48:40;22.30;55.00
78779;DHT22;68121;52.404;5.318;2023-07-30T14:51:07;22.20;55.00
78779;DHT22;68121;52.404;5.318;2023-07-30T14:53:33;22.10;55.00
78779;DHT22;68121;52.404;5.318;2023-07-30T14:55:59;22.10;55.00
78779;DHT22;68121;52.404;5.318;2023-07-30T14:58:27;22.10;55.00
78779;DHT22;68121;52.404;5.318;2023-07-30T15:00:53;22.10;55.00
78779;DHT22;68121;52.404;5.318;2023-07-30T15:03:19;22.20;55.20
78779;DHT22;68121;52.404;5.318;2023-07-30T15:05:45;22.30;55.20
78779;DHT22;68121;52.404;5.318;2023-07-30T15:08:11;22.40;55.10
78779;DHT22;68121;52.404;5.318;2023-07-30T15:10:37;22.50;54.90
78779;DHT22;68121;52.404;5.318;2023-07-30T15:13:03;22.50;54.70
78779;DHT22;68121;52.404;5.318;2023-07-30T15:15:29;22.50;54.50
78779;DHT22;68121;52.404;5.318;2023-07-30T15:17:56;22.50;54.40
78779;DHT22;68121;52.404;5.318;2023-07-30T15:20:22;22.50;54.30
78779;DHT22;68121;52.404;5.318;2023-07-30T15:22:48;22.40;54.40
78779;DHT22;68121;52.404;5.318;2023-07-30T15:25:14;22.40;54.30
78779;DHT22;68121;52.404;5.318;2023-07-30T15:27:40;22.30;54.30
78779;DHT22;68121;52.404;5.318;2023-07-30T15:30:06;22.30;54.20